sensor_id;sensor_type;location;lat;lon;timestamp;P1;durP1;ratioP1;P2;durP2;ratioP2
31798;SDS011;18374;51.136;3.502;2023-06-22T00:00:33;6.90;;;4.05;;
31798;SDS011;18374;51.136;3.502;2023-06-22T00:03:01;7.97;;;4.88;;
31798;SDS011;18374;51.136;3.502;2023-06-22T00:05:29;7.55;;;4.38;;
31798;SDS011;18374;51.136;3.502;2023-06-22T00:07:57;8.15;;;4.75;;
31798;SDS011;18374;51.136;3.502;2023-06-22T00:10:24;7.63;;;4.30;;
31798;SDS011;18374;51.136;3.502;2023-06-22T00:12:52;5.85;;;4.13;;
31798;SDS011;18374;51.136;3.502;2023-06-22T00:15:20;7.85;;;4.15;;
31798;SDS011;18374;51.136;3.502;2023-06-22T00:17:49;8.80;;;4.60;;
31798;SDS011;18374;51.136;3.502;2023-06-22T00:20:18;6.60;;;4.20;;
31798;SDS011;18374;51.136;3.502;2023-06-22T00:22:45;10.73;;;4.60;;
31798;SDS011;18374;51.136;3.502;2023-06-22T00:25:15;7.90;;;4.10;;
31798;SDS011;18374;51.136;3.502;2023-06-22T00:27:42;5.65;;;4.13;;
31798;SDS011;18374;51.136;3.502;2023-06-22T00:30:10;7.88;;;4.10;;
31798;SDS011;18374;51.136;3.502;2023-06-22T00:32:38;5.53;;;3.92;;
31798;SDS011;18374;51.136;3.502;2023-06-22T00:35:07;6.40;;;4.22;;
31798;SDS011;18374;51.136;3.502;2023-06-22T00:37:36;6.82;;;4.35;;
31798;SDS011;18374;51.136;3.502;2023-06-22T00:40:05;10.10;;;4.57;;
31798;SDS011;18374;51.136;3.502;2023-06-22T00:42:35;8.23;;;4.53;;
31798;SDS011;18374;51.136;3.502;2023-06-22T00:45:03;10.48;;;5.15;;
31798;SDS011;18374;51.136;3.502;2023-06-22T00:47:35;7.60;;;4.50;;
31798;SDS011;18374;51.136;3.502;2023-06-22T00:50:05;7.63;;;5.32;;
31798;SDS011;18374;51.136;3.502;2023-06-22T00:52:37;10.45;;;4.50;;
31798;SDS011;18374;51.136;3.502;2023-06-22T00:55:10;9.88;;;5.90;;
31798;SDS011;18374;51.136;3.502;2023-06-22T00:57:38;9.00;;;5.90;;
31798;SDS011;18374;51.136;3.502;2023-06-22T01:00:06;9.82;;;5.35;;
31798;SDS011;18374;51.136;3.502;2023-06-22T01:02:36;6.75;;;4.70;;
31798;SDS011;18374;51.136;3.502;2023-06-22T01:05:06;9.30;;;5.28;;
31798;SDS011;18374;51.136;3.502;2023-06-22T01:07:35;8.15;;;5.18;;
31798;SDS011;18374;51.136;3.502;2023-06-22T01:13:32;10.18;;;5.55;;
31798;SDS011;18374;51.136;3.502;2023-06-22T01:16:30;9.93;;;6.38;;
31798;SDS011;18374;51.136;3.502;2023-06-22T01:19:01;10.98;;;5.85;;
31798;SDS011;18374;51.136;3.502;2023-06-22T01:21:42;8.88;;;5.35;;
31798;SDS011;18374;51.136;3.502;2023-06-22T01:24:27;9.40;;;5.03;;
31798;SDS011;18374;51.136;3.502;2023-06-22T01:27:08;10.02;;;6.28;;
31798;SDS011;18374;51.136;3.502;2023-06-22T01:29:52;9.60;;;5.68;;
31798;SDS011;18374;51.136;3.502;2023-06-22T01:32:32;7.85;;;5.90;;
31798;SDS011;18374;51.136;3.502;2023-06-22T01:35:03;9.27;;;5.75;;
31798;SDS011;18374;51.136;3.502;2023-06-22T01:37:34;9.75;;;5.80;;
31798;SDS011;18374;51.136;3.502;2023-06-22T01:40:07;9.25;;;6.22;;
31798;SDS011;18374;51.136;3.502;2023-06-22T01:42:36;9.30;;;5.85;;
31798;SDS011;18374;51.136;3.502;2023-06-22T01:45:07;13.00;;;6.40;;
31798;SDS011;18374;51.136;3.502;2023-06-22T01:47:38;11.90;;;6.15;;
31798;SDS011;18374;51.136;3.502;2023-06-22T01:50:09;10.18;;;5.93;;
31798;SDS011;18374;51.136;3.502;2023-06-22T01:52:38;9.20;;;6.03;;
31798;SDS011;18374;51.136;3.502;2023-06-22T01:55:05;10.70;;;5.93;;
31798;SDS011;18374;51.136;3.502;2023-06-22T01:57:35;8.35;;;5.57;;
31798;SDS011;18374;51.136;3.502;2023-06-22T02:00:03;11.32;;;6.05;;
31798;SDS011;18374;51.136;3.502;2023-06-22T02:02:48;8.07;;;5.57;;
31798;SDS011;18374;51.136;3.502;2023-06-22T02:05:29;11.02;;;6.00;;
31798;SDS011;18374;51.136;3.502;2023-06-22T02:08:11;7.90;;;5.38;;
31798;SDS011;18374;51.136;3.502;2023-06-22T02:10:48;11.23;;;5.93;;
31798;SDS011;18374;51.136;3.502;2023-06-22T02:13:17;13.10;;;5.93;;
31798;SDS011;18374;51.136;3.502;2023-06-22T02:15:46;10.20;;;5.90;;
31798;SDS011;18374;51.136;3.502;2023-06-22T02:18:15;9.88;;;6.13;;
31798;SDS011;18374;51.136;3.502;2023-06-22T02:20:43;9.90;;;6.25;;
31798;SDS011;18374;51.136;3.502;2023-06-22T02:23:10;11.30;;;6.43;;
31798;SDS011;18374;51.136;3.502;2023-06-22T02:25:38;11.38;;;7.03;;
31798;SDS011;18374;51.136;3.502;2023-06-22T02:28:06;8.73;;;5.90;;
31798;SDS011;18374;51.136;3.502;2023-06-22T02:30:34;10.45;;;6.50;;
31798;SDS011;18374;51.136;3.502;2023-06-22T02:33:02;10.40;;;5.85;;
31798;SDS011;18374;51.136;3.502;2023-06-22T02:35:30;10.25;;;6.40;;
31798;SDS011;18374;51.136;3.502;2023-06-22T02:37:59;11.32;;;6.55;;
31798;SDS011;18374;51.136;3.502;2023-06-22T02:40:28;8.93;;;6.20;;
31798;SDS011;18374;51.136;3.502;2023-06-22T02:42:58;15.73;;;6.35;;
31798;SDS011;18374;51.136;3.502;2023-06-22T02:45:29;11.02;;;6.28;;
31798;SDS011;18374;51.136;3.502;2023-06-22T02:47:57;10.02;;;6.90;;
31798;SDS011;18374;51.136;3.502;2023-06-22T02:50:25;10.30;;;6.65;;
31798;SDS011;18374;51.136;3.502;2023-06-22T02:52:54;10.90;;;6.45;;
31798;SDS011;18374;51.136;3.502;2023-06-22T02:55:22;10.35;;;6.05;;
31798;SDS011;18374;51.136;3.502;2023-06-22T02:57:55;10.73;;;6.90;;
31798;SDS011;18374;51.136;3.502;2023-06-22T03:00:24;9.02;;;5.85;;
31798;SDS011;18374;51.136;3.502;2023-06-22T03:02:58;10.90;;;6.43;;
31798;SDS011;18374;51.136;3.502;2023-06-22T03:05:26;12.23;;;6.03;;
31798;SDS011;18374;51.136;3.502;2023-06-22T03:07:55;12.90;;;6.78;;
31798;SDS011;18374;51.136;3.502;2023-06-22T03:10:23;15.73;;;6.68;;
31798;SDS011;18374;51.136;3.502;2023-06-22T03:12:51;9.77;;;6.63;;
31798;SDS011;18374;51.136;3.502;2023-06-22T03:15:18;12.75;;;6.82;;
31798;SDS011;18374;51.136;3.502;2023-06-22T03:17:50;12.13;;;6.60;;
31798;SDS011;18374;51.136;3.502;2023-06-22T03:20:18;10.77;;;6.95;;
31798;SDS011;18374;51.136;3.502;2023-06-22T03:22:46;10.98;;;6.55;;
31798;SDS011;18374;51.136;3.502;2023-06-22T03:25:15;13.45;;;7.32;;
31798;SDS011;18374;51.136;3.502;2023-06-22T03:27:45;10.73;;;6.95;;
31798;SDS011;18374;51.136;3.502;2023-06-22T03:30:15;9.63;;;6.53;;
31798;SDS011;18374;51.136;3.502;2023-06-22T03:32:45;9.82;;;6.40;;
31798;SDS011;18374;51.136;3.502;2023-06-22T03:35:14;10.57;;;6.57;;
31798;SDS011;18374;51.136;3.502;2023-06-22T03:37:42;12.15;;;6.13;;
31798;SDS011;18374;51.136;3.502;2023-06-22T03:40:09;13.40;;;6.50;;
31798;SDS011;18374;51.136;3.502;2023-06-22T03:42:39;9.48;;;6.53;;
31798;SDS011;18374;51.136;3.502;2023-06-22T03:45:09;10.88;;;6.38;;
31798;SDS011;18374;51.136;3.502;2023-06-22T03:47:37;11.77;;;6.53;;
31798;SDS011;18374;51.136;3.502;2023-06-22T03:50:06;12.57;;;7.13;;
31798;SDS011;18374;51.136;3.502;2023-06-22T03:52:34;13.45;;;7.63;;
31798;SDS011;18374;51.136;3.502;2023-06-22T03:55:01;11.57;;;7.13;;
31798;SDS011;18374;51.136;3.502;2023-06-22T03:57:30;12.48;;;7.85;;
31798;SDS011;18374;51.136;3.502;2023-06-22T03:59:57;13.10;;;6.60;;
31798;SDS011;18374;51.136;3.502;2023-06-22T04:02:25;13.18;;;7.82;;
31798;SDS011;18374;51.136;3.502;2023-06-22T04:04:53;10.65;;;7.20;;
31798;SDS011;18374;51.136;3.502;2023-06-22T04:07:21;12.73;;;7.28;;
31798;SDS011;18374;51.136;3.502;2023-06-22T04:09:49;9.85;;;6.30;;
31798;SDS011;18374;51.136;3.502;2023-06-22T04:12:16;10.65;;;6.40;;
31798;SDS011;18374;51.136;3.502;2023-06-22T04:14:44;13.55;;;7.30;;
31798;SDS011;18374;51.136;3.502;2023-06-22T04:17:12;11.60;;;7.32;;
31798;SDS011;18374;51.136;3.502;2023-06-22T04:19:41;11.55;;;7.10;;
31798;SDS011;18374;51.136;3.502;2023-06-22T04:22:09;11.00;;;7.10;;
31798;SDS011;18374;51.136;3.502;2023-06-22T04:24:37;11.50;;;7.22;;
31798;SDS011;18374;51.136;3.502;2023-06-22T04:27:05;23.02;;;7.32;;
31798;SDS011;18374;51.136;3.502;2023-06-22T04:29:33;12.07;;;7.10;;
31798;SDS011;18374;51.136;3.502;2023-06-22T04:32:00;14.13;;;8.05;;
31798;SDS011;18374;51.136;3.502;2023-06-22T04:34:32;12.05;;;7.55;;
31798;SDS011;18374;51.136;3.502;2023-06-22T04:36:59;10.07;;;7.18;;
31798;SDS011;18374;51.136;3.502;2023-06-22T04:39:27;10.65;;;6.88;;
31798;SDS011;18374;51.136;3.502;2023-06-22T04:41:55;10.75;;;7.18;;
31798;SDS011;18374;51.136;3.502;2023-06-22T04:44:27;11.38;;;7.57;;
31798;SDS011;18374;51.136;3.502;2023-06-22T04:46:57;10.32;;;7.20;;
31798;SDS011;18374;51.136;3.502;2023-06-22T04:49:30;15.32;;;7.40;;
31798;SDS011;18374;51.136;3.502;2023-06-22T04:52:06;13.63;;;8.02;;
31798;SDS011;18374;51.136;3.502;2023-06-22T04:54:37;11.15;;;7.22;;
31798;SDS011;18374;51.136;3.502;2023-06-22T04:57:07;10.38;;;7.00;;
31798;SDS011;18374;51.136;3.502;2023-06-22T04:59:38;11.80;;;7.25;;
31798;SDS011;18374;51.136;3.502;2023-06-22T05:02:08;13.82;;;8.10;;
31798;SDS011;18374;51.136;3.502;2023-06-22T05:04:37;13.10;;;8.13;;
31798;SDS011;18374;51.136;3.502;2023-06-22T05:07:08;18.30;;;9.10;;
31798;SDS011;18374;51.136;3.502;2023-06-22T05:09:36;10.68;;;7.65;;
31798;SDS011;18374;51.136;3.502;2023-06-22T05:12:04;14.10;;;7.70;;
31798;SDS011;18374;51.136;3.502;2023-06-22T05:14:35;16.58;;;9.02;;
31798;SDS011;18374;51.136;3.502;2023-06-22T05:17:03;12.40;;;8.57;;
31798;SDS011;18374;51.136;3.502;2023-06-22T05:19:31;17.80;;;9.88;;
31798;SDS011;18374;51.136;3.502;2023-06-22T05:22:01;16.98;;;10.30;;
31798;SDS011;18374;51.136;3.502;2023-06-22T05:24:29;14.18;;;9.48;;
31798;SDS011;18374;51.136;3.502;2023-06-22T05:26:56;18.23;;;10.40;;
31798;SDS011;18374;51.136;3.502;2023-06-22T05:29:24;16.15;;;10.10;;
31798;SDS011;18374;51.136;3.502;2023-06-22T05:31:53;21.00;;;11.15;;
31798;SDS011;18374;51.136;3.502;2023-06-22T05:34:21;18.73;;;11.02;;
31798;SDS011;18374;51.136;3.502;2023-06-22T05:36:49;18.60;;;11.23;;
31798;SDS011;18374;51.136;3.502;2023-06-22T05:39:16;18.25;;;10.80;;
31798;SDS011;18374;51.136;3.502;2023-06-22T05:41:45;20.02;;;11.27;;
31798;SDS011;18374;51.136;3.502;2023-06-22T05:44:13;18.75;;;10.57;;
31798;SDS011;18374;51.136;3.502;2023-06-22T05:46:43;19.80;;;11.45;;
31798;SDS011;18374;51.136;3.502;2023-06-22T05:49:13;20.85;;;11.32;;
31798;SDS011;18374;51.136;3.502;2023-06-22T05:51:42;19.98;;;12.20;;
31798;SDS011;18374;51.136;3.502;2023-06-22T05:54:10;17.15;;;11.68;;
31798;SDS011;18374;51.136;3.502;2023-06-22T05:56:40;23.65;;;12.23;;
31798;SDS011;18374;51.136;3.502;2023-06-22T05:59:08;20.65;;;12.38;;
31798;SDS011;18374;51.136;3.502;2023-06-22T06:01:36;20.77;;;12.98;;
31798;SDS011;18374;51.136;3.502;2023-06-22T06:04:03;27.13;;;13.75;;
31798;SDS011;18374;51.136;3.502;2023-06-22T06:06:32;25.38;;;13.77;;
31798;SDS011;18374;51.136;3.502;2023-06-22T06:09:04;24.30;;;14.10;;
31798;SDS011;18374;51.136;3.502;2023-06-22T06:11:32;22.10;;;13.30;;
31798;SDS011;18374;51.136;3.502;2023-06-22T06:14:00;20.45;;;13.25;;
31798;SDS011;18374;51.136;3.502;2023-06-22T06:16:28;23.80;;;13.18;;
31798;SDS011;18374;51.136;3.502;2023-06-22T06:18:55;22.75;;;12.82;;
31798;SDS011;18374;51.136;3.502;2023-06-22T06:21:25;22.25;;;13.55;;
31798;SDS011;18374;51.136;3.502;2023-06-22T06:23:57;23.08;;;12.93;;
31798;SDS011;18374;51.136;3.502;2023-06-22T06:26:25;20.75;;;12.60;;
31798;SDS011;18374;51.136;3.502;2023-06-22T06:28:56;23.90;;;13.35;;
31798;SDS011;18374;51.136;3.502;2023-06-22T06:31:24;26.40;;;14.68;;
31798;SDS011;18374;51.136;3.502;2023-06-22T06:33:54;26.55;;;14.68;;
31798;SDS011;18374;51.136;3.502;2023-06-22T06:36:22;30.00;;;16.63;;
31798;SDS011;18374;51.136;3.502;2023-06-22T06:38:50;25.65;;;16.15;;
31798;SDS011;18374;51.136;3.502;2023-06-22T06:41:18;28.58;;;15.55;;
31798;SDS011;18374;51.136;3.502;2023-06-22T06:43:46;27.98;;;15.98;;
31798;SDS011;18374;51.136;3.502;2023-06-22T06:46:14;35.47;;;17.30;;
31798;SDS011;18374;51.136;3.502;2023-06-22T06:48:42;28.75;;;16.13;;
31798;SDS011;18374;51.136;3.502;2023-06-22T06:51:10;29.60;;;17.13;;
31798;SDS011;18374;51.136;3.502;2023-06-22T06:53:38;27.80;;;16.23;;
31798;SDS011;18374;51.136;3.502;2023-06-22T06:56:05;31.58;;;16.50;;
31798;SDS011;18374;51.136;3.502;2023-06-22T06:58:33;32.30;;;16.52;;
31798;SDS011;18374;51.136;3.502;2023-06-22T07:01:01;30.17;;;16.58;;
31798;SDS011;18374;51.136;3.502;2023-06-22T07:03:30;28.48;;;16.65;;
31798;SDS011;18374;51.136;3.502;2023-06-22T07:05:59;26.35;;;16.02;;
31798;SDS011;18374;51.136;3.502;2023-06-22T07:08:27;34.20;;;16.58;;
31798;SDS011;18374;51.136;3.502;2023-06-22T07:10:55;28.92;;;17.30;;
31798;SDS011;18374;51.136;3.502;2023-06-22T07:13:24;26.65;;;17.15;;
31798;SDS011;18374;51.136;3.502;2023-06-22T07:15:51;33.83;;;17.95;;
31798;SDS011;18374;51.136;3.502;2023-06-22T07:18:19;29.27;;;17.35;;
31798;SDS011;18374;51.136;3.502;2023-06-22T07:20:47;31.58;;;17.73;;
31798;SDS011;18374;51.136;3.502;2023-06-22T07:23:14;31.33;;;18.00;;
31798;SDS011;18374;51.136;3.502;2023-06-22T07:25:43;32.67;;;17.60;;
31798;SDS011;18374;51.136;3.502;2023-06-22T07:28:11;32.55;;;18.38;;
31798;SDS011;18374;51.136;3.502;2023-06-22T07:30:39;30.85;;;17.60;;
31798;SDS011;18374;51.136;3.502;2023-06-22T07:33:07;29.70;;;17.95;;
31798;SDS011;18374;51.136;3.502;2023-06-22T07:35:36;33.15;;;18.13;;
31798;SDS011;18374;51.136;3.502;2023-06-22T07:38:03;29.33;;;18.15;;
31798;SDS011;18374;51.136;3.502;2023-06-22T07:40:32;32.40;;;18.10;;
31798;SDS011;18374;51.136;3.502;2023-06-22T07:43:01;32.33;;;18.73;;
31798;SDS011;18374;51.136;3.502;2023-06-22T07:45:30;34.97;;;18.35;;
31798;SDS011;18374;51.136;3.502;2023-06-22T07:48:01;26.70;;;16.52;;
31798;SDS011;18374;51.136;3.502;2023-06-22T07:50:29;28.58;;;18.63;;
31798;SDS011;18374;51.136;3.502;2023-06-22T07:52:57;28.35;;;19.08;;
31798;SDS011;18374;51.136;3.502;2023-06-22T07:55:25;25.33;;;17.85;;
31798;SDS011;18374;51.136;3.502;2023-06-22T07:57:52;32.22;;;17.17;;
31798;SDS011;18374;51.136;3.502;2023-06-22T08:00:20;30.80;;;17.08;;
31798;SDS011;18374;51.136;3.502;2023-06-22T08:02:48;30.63;;;16.95;;
31798;SDS011;18374;51.136;3.502;2023-06-22T08:05:16;27.25;;;16.42;;
31798;SDS011;18374;51.136;3.502;2023-06-22T08:08:00;28.63;;;16.83;;
31798;SDS011;18374;51.136;3.502;2023-06-22T08:10:28;27.98;;;17.42;;
31798;SDS011;18374;51.136;3.502;2023-06-22T08:12:55;26.30;;;16.25;;
31798;SDS011;18374;51.136;3.502;2023-06-22T08:15:23;26.05;;;16.48;;
31798;SDS011;18374;51.136;3.502;2023-06-22T08:17:54;26.13;;;15.13;;
31798;SDS011;18374;51.136;3.502;2023-06-22T08:20:22;28.42;;;16.10;;
31798;SDS011;18374;51.136;3.502;2023-06-22T08:22:50;22.45;;;15.35;;
31798;SDS011;18374;51.136;3.502;2023-06-22T08:25:17;25.50;;;16.73;;
31798;SDS011;18374;51.136;3.502;2023-06-22T08:27:45;22.83;;;15.23;;
31798;SDS011;18374;51.136;3.502;2023-06-22T08:30:17;24.58;;;16.45;;
31798;SDS011;18374;51.136;3.502;2023-06-22T08:32:48;25.80;;;17.50;;
31798;SDS011;18374;51.136;3.502;2023-06-22T08:35:15;25.90;;;16.20;;
31798;SDS011;18374;51.136;3.502;2023-06-22T08:37:43;25.10;;;15.25;;
31798;SDS011;18374;51.136;3.502;2023-06-22T08:40:17;20.88;;;13.77;;
31798;SDS011;18374;51.136;3.502;2023-06-22T08:42:47;21.95;;;14.77;;
31798;SDS011;18374;51.136;3.502;2023-06-22T08:45:15;22.70;;;14.25;;
31798;SDS011;18374;51.136;3.502;2023-06-22T08:47:43;22.17;;;13.65;;
31798;SDS011;18374;51.136;3.502;2023-06-22T08:50:11;24.40;;;15.75;;
31798;SDS011;18374;51.136;3.502;2023-06-22T08:52:40;24.77;;;15.05;;
31798;SDS011;18374;51.136;3.502;2023-06-22T08:55:12;26.38;;;14.15;;
31798;SDS011;18374;51.136;3.502;2023-06-22T08:57:41;20.58;;;13.68;;
31798;SDS011;18374;51.136;3.502;2023-06-22T09:00:10;21.83;;;13.63;;
31798;SDS011;18374;51.136;3.502;2023-06-22T09:02:46;19.50;;;13.55;;
31798;SDS011;18374;51.136;3.502;2023-06-22T09:05:15;19.05;;;12.45;;
31798;SDS011;18374;51.136;3.502;2023-06-22T09:07:43;17.88;;;11.88;;
31798;SDS011;18374;51.136;3.502;2023-06-22T09:10:11;20.15;;;13.20;;
31798;SDS011;18374;51.136;3.502;2023-06-22T09:12:39;17.98;;;12.07;;
31798;SDS011;18374;51.136;3.502;2023-06-22T09:15:08;134.48;;;20.17;;
31798;SDS011;18374;51.136;3.502;2023-06-22T09:17:43;21.20;;;13.20;;
31798;SDS011;18374;51.136;3.502;2023-06-22T09:20:14;18.02;;;12.25;;
31798;SDS011;18374;51.136;3.502;2023-06-22T09:22:42;22.25;;;12.77;;
31798;SDS011;18374;51.136;3.502;2023-06-22T09:25:10;19.63;;;11.80;;
31798;SDS011;18374;51.136;3.502;2023-06-22T09:27:38;19.58;;;11.50;;
31798;SDS011;18374;51.136;3.502;2023-06-22T09:30:06;16.80;;;11.07;;
31798;SDS011;18374;51.136;3.502;2023-06-22T09:32:35;18.15;;;11.93;;
31798;SDS011;18374;51.136;3.502;2023-06-22T09:35:04;20.50;;;13.07;;
31798;SDS011;18374;51.136;3.502;2023-06-22T09:37:33;21.40;;;12.40;;
31798;SDS011;18374;51.136;3.502;2023-06-22T09:40:01;16.23;;;11.43;;
31798;SDS011;18374;51.136;3.502;2023-06-22T09:42:35;21.15;;;12.23;;
31798;SDS011;18374;51.136;3.502;2023-06-22T09:45:03;17.67;;;11.70;;
31798;SDS011;18374;51.136;3.502;2023-06-22T09:47:32;19.58;;;12.40;;
31798;SDS011;18374;51.136;3.502;2023-06-22T09:50:00;17.30;;;11.73;;
31798;SDS011;18374;51.136;3.502;2023-06-22T09:52:27;18.65;;;11.20;;
31798;SDS011;18374;51.136;3.502;2023-06-22T09:55:14;16.67;;;11.20;;
31798;SDS011;18374;51.136;3.502;2023-06-22T09:57:43;19.95;;;11.25;;
31798;SDS011;18374;51.136;3.502;2023-06-22T10:00:11;17.10;;;11.38;;
31798;SDS011;18374;51.136;3.502;2023-06-22T10:02:43;16.15;;;10.23;;
31798;SDS011;18374;51.136;3.502;2023-06-22T10:05:12;15.80;;;9.90;;
31798;SDS011;18374;51.136;3.502;2023-06-22T10:07:40;13.98;;;9.38;;
31798;SDS011;18374;51.136;3.502;2023-06-22T10:10:11;14.15;;;8.98;;
31798;SDS011;18374;51.136;3.502;2023-06-22T10:12:46;15.88;;;9.43;;
31798;SDS011;18374;51.136;3.502;2023-06-22T10:15:22;13.23;;;9.02;;
31798;SDS011;18374;51.136;3.502;2023-06-22T10:17:50;15.32;;;8.38;;
31798;SDS011;18374;51.136;3.502;2023-06-22T10:20:18;13.65;;;8.48;;
31798;SDS011;18374;51.136;3.502;2023-06-22T10:22:47;14.43;;;8.98;;
31798;SDS011;18374;51.136;3.502;2023-06-22T10:25:15;17.25;;;10.02;;
31798;SDS011;18374;51.136;3.502;2023-06-22T10:27:43;15.52;;;9.48;;
31798;SDS011;18374;51.136;3.502;2023-06-22T10:30:12;14.73;;;9.13;;
31798;SDS011;18374;51.136;3.502;2023-06-22T10:32:41;12.95;;;9.27;;
31798;SDS011;18374;51.136;3.502;2023-06-22T10:35:12;18.90;;;8.80;;
31798;SDS011;18374;51.136;3.502;2023-06-22T10:37:43;14.55;;;9.80;;
31798;SDS011;18374;51.136;3.502;2023-06-22T10:40:13;13.43;;;8.18;;
31798;SDS011;18374;51.136;3.502;2023-06-22T10:42:43;14.43;;;7.82;;
31798;SDS011;18374;51.136;3.502;2023-06-22T10:45:11;11.02;;;7.50;;
31798;SDS011;18374;51.136;3.502;2023-06-22T10:47:38;12.55;;;7.65;;
31798;SDS011;18374;51.136;3.502;2023-06-22T10:50:09;11.98;;;7.90;;
31798;SDS011;18374;51.136;3.502;2023-06-22T10:52:38;14.73;;;7.53;;
31798;SDS011;18374;51.136;3.502;2023-06-22T10:55:09;15.95;;;6.90;;
31798;SDS011;18374;51.136;3.502;2023-06-22T10:57:37;12.10;;;7.55;;
31798;SDS011;18374;51.136;3.502;2023-06-22T11:00:08;11.75;;;7.70;;
31798;SDS011;18374;51.136;3.502;2023-06-22T11:02:38;11.82;;;7.25;;
31798;SDS011;18374;51.136;3.502;2023-06-22T11:05:06;10.57;;;6.90;;
31798;SDS011;18374;51.136;3.502;2023-06-22T11:07:34;14.88;;;7.80;;
31798;SDS011;18374;51.136;3.502;2023-06-22T11:10:02;13.40;;;6.88;;
31798;SDS011;18374;51.136;3.502;2023-06-22T11:12:31;13.60;;;6.85;;
31798;SDS011;18374;51.136;3.502;2023-06-22T11:14:58;10.10;;;6.35;;
31798;SDS011;18374;51.136;3.502;2023-06-22T11:17:27;10.05;;;6.65;;
31798;SDS011;18374;51.136;3.502;2023-06-22T11:19:54;9.95;;;5.75;;
31798;SDS011;18374;51.136;3.502;2023-06-22T11:22:22;10.25;;;5.68;;
31798;SDS011;18374;51.136;3.502;2023-06-22T11:24:50;8.90;;;6.07;;
31798;SDS011;18374;51.136;3.502;2023-06-22T11:27:17;9.30;;;6.07;;
31798;SDS011;18374;51.136;3.502;2023-06-22T11:29:45;7.88;;;5.15;;
31798;SDS011;18374;51.136;3.502;2023-06-22T11:32:13;12.20;;;6.10;;
31798;SDS011;18374;51.136;3.502;2023-06-22T11:34:41;9.82;;;5.68;;
31798;SDS011;18374;51.136;3.502;2023-06-22T11:37:09;9.05;;;5.95;;
31798;SDS011;18374;51.136;3.502;2023-06-22T11:39:36;9.50;;;6.22;;
31798;SDS011;18374;51.136;3.502;2023-06-22T11:42:09;9.48;;;6.25;;
31798;SDS011;18374;51.136;3.502;2023-06-22T11:44:37;14.25;;;7.50;;
31798;SDS011;18374;51.136;3.502;2023-06-22T11:47:05;11.23;;;7.00;;
31798;SDS011;18374;51.136;3.502;2023-06-22T11:49:33;11.15;;;7.45;;
31798;SDS011;18374;51.136;3.502;2023-06-22T11:52:01;10.82;;;7.38;;
31798;SDS011;18374;51.136;3.502;2023-06-22T11:54:29;13.73;;;8.20;;
31798;SDS011;18374;51.136;3.502;2023-06-22T11:56:57;13.80;;;8.27;;
31798;SDS011;18374;51.136;3.502;2023-06-22T11:59:24;13.73;;;8.65;;
31798;SDS011;18374;51.136;3.502;2023-06-22T12:01:52;16.48;;;8.60;;
31798;SDS011;18374;51.136;3.502;2023-06-22T12:04:20;12.43;;;7.63;;
31798;SDS011;18374;51.136;3.502;2023-06-22T12:06:48;11.57;;;7.47;;
31798;SDS011;18374;51.136;3.502;2023-06-22T12:09:15;9.70;;;6.32;;
31798;SDS011;18374;51.136;3.502;2023-06-22T12:11:43;12.43;;;6.43;;
31798;SDS011;18374;51.136;3.502;2023-06-22T12:14:11;12.43;;;7.28;;
31798;SDS011;18374;51.136;3.502;2023-06-22T12:16:39;13.73;;;7.03;;
31798;SDS011;18374;51.136;3.502;2023-06-22T12:19:06;9.57;;;6.68;;
31798;SDS011;18374;51.136;3.502;2023-06-22T12:21:34;14.48;;;7.78;;
31798;SDS011;18374;51.136;3.502;2023-06-22T12:24:02;14.63;;;7.72;;
31798;SDS011;18374;51.136;3.502;2023-06-22T12:26:30;11.02;;;7.32;;
31798;SDS011;18374;51.136;3.502;2023-06-22T12:28:58;13.20;;;7.55;;
31798;SDS011;18374;51.136;3.502;2023-06-22T12:31:25;13.25;;;7.25;;
31798;SDS011;18374;51.136;3.502;2023-06-22T12:33:53;17.08;;;9.13;;
31798;SDS011;18374;51.136;3.502;2023-06-22T12:36:21;14.88;;;9.20;;
31798;SDS011;18374;51.136;3.502;2023-06-22T12:38:49;13.15;;;8.43;;
31798;SDS011;18374;51.136;3.502;2023-06-22T12:41:16;14.68;;;8.32;;
31798;SDS011;18374;51.136;3.502;2023-06-22T12:43:44;15.73;;;9.20;;
31798;SDS011;18374;51.136;3.502;2023-06-22T12:46:13;14.82;;;8.80;;
31798;SDS011;18374;51.136;3.502;2023-06-22T12:48:41;17.08;;;9.65;;
31798;SDS011;18374;51.136;3.502;2023-06-22T12:51:09;18.65;;;9.65;;
31798;SDS011;18374;51.136;3.502;2023-06-22T12:53:37;19.52;;;9.55;;
31798;SDS011;18374;51.136;3.502;2023-06-22T12:56:05;17.30;;;10.20;;
31798;SDS011;18374;51.136;3.502;2023-06-22T12:58:32;16.48;;;9.48;;
31798;SDS011;18374;51.136;3.502;2023-06-22T13:01:00;16.70;;;9.75;;
31798;SDS011;18374;51.136;3.502;2023-06-22T13:03:28;21.85;;;11.20;;
31798;SDS011;18374;51.136;3.502;2023-06-22T13:05:56;25.85;;;14.25;;
31798;SDS011;18374;51.136;3.502;2023-06-22T13:08:23;33.28;;;19.27;;
31798;SDS011;18374;51.136;3.502;2023-06-22T13:11:11;37.50;;;20.77;;
31798;SDS011;18374;51.136;3.502;2023-06-22T13:13:39;36.58;;;20.83;;
31798;SDS011;18374;51.136;3.502;2023-06-22T13:16:07;47.13;;;24.35;;
31798;SDS011;18374;51.136;3.502;2023-06-22T13:18:36;44.30;;;24.23;;
31798;SDS011;18374;51.136;3.502;2023-06-22T13:21:05;42.25;;;25.42;;
31798;SDS011;18374;51.136;3.502;2023-06-22T13:23:33;43.08;;;24.27;;
31798;SDS011;18374;51.136;3.502;2023-06-22T13:26:02;46.53;;;25.27;;
31798;SDS011;18374;51.136;3.502;2023-06-22T13:28:30;41.42;;;25.25;;
31798;SDS011;18374;51.136;3.502;2023-06-22T13:30:59;38.47;;;23.70;;
31798;SDS011;18374;51.136;3.502;2023-06-22T13:33:27;53.58;;;25.80;;
31798;SDS011;18374;51.136;3.502;2023-06-22T13:35:55;39.72;;;25.45;;
31798;SDS011;18374;51.136;3.502;2023-06-22T13:38:22;48.08;;;25.50;;
31798;SDS011;18374;51.136;3.502;2023-06-22T13:40:50;43.33;;;23.23;;
31798;SDS011;18374;51.136;3.502;2023-06-22T13:43:18;43.08;;;22.75;;
31798;SDS011;18374;51.136;3.502;2023-06-22T13:45:46;44.20;;;23.20;;
31798;SDS011;18374;51.136;3.502;2023-06-22T13:48:14;40.45;;;22.95;;
31798;SDS011;18374;51.136;3.502;2023-06-22T13:50:41;42.03;;;22.95;;
31798;SDS011;18374;51.136;3.502;2023-06-22T13:53:10;38.83;;;22.02;;
31798;SDS011;18374;51.136;3.502;2023-06-22T13:55:38;34.75;;;21.10;;
31798;SDS011;18374;51.136;3.502;2023-06-22T13:58:07;37.42;;;19.92;;
31798;SDS011;18374;51.136;3.502;2023-06-22T14:00:34;37.85;;;21.52;;
31798;SDS011;18374;51.136;3.502;2023-06-22T14:03:02;34.35;;;19.50;;
31798;SDS011;18374;51.136;3.502;2023-06-22T14:05:30;35.67;;;19.58;;
31798;SDS011;18374;51.136;3.502;2023-06-22T14:07:58;38.55;;;21.40;;
31798;SDS011;18374;51.136;3.502;2023-06-22T14:10:26;34.67;;;20.17;;
31798;SDS011;18374;51.136;3.502;2023-06-22T14:12:54;33.00;;;20.52;;
31798;SDS011;18374;51.136;3.502;2023-06-22T14:15:22;34.58;;;20.38;;
31798;SDS011;18374;51.136;3.502;2023-06-22T14:17:50;38.40;;;22.85;;
31798;SDS011;18374;51.136;3.502;2023-06-22T14:20:18;37.83;;;21.67;;
31798;SDS011;18374;51.136;3.502;2023-06-22T14:22:45;39.10;;;22.30;;
31798;SDS011;18374;51.136;3.502;2023-06-22T14:25:13;46.22;;;25.00;;
31798;SDS011;18374;51.136;3.502;2023-06-22T14:27:41;43.63;;;25.45;;
31798;SDS011;18374;51.136;3.502;2023-06-22T14:30:09;46.08;;;25.05;;
31798;SDS011;18374;51.136;3.502;2023-06-22T14:32:37;47.30;;;27.20;;
31798;SDS011;18374;51.136;3.502;2023-06-22T14:35:04;46.22;;;28.27;;
31798;SDS011;18374;51.136;3.502;2023-06-22T14:37:32;49.90;;;30.02;;
31798;SDS011;18374;51.136;3.502;2023-06-22T14:40:00;47.17;;;28.77;;
31798;SDS011;18374;51.136;3.502;2023-06-22T14:42:28;54.92;;;29.60;;
31798;SDS011;18374;51.136;3.502;2023-06-22T14:44:57;50.28;;;29.17;;